Time;durP1;ratioP1;P1;durP2;ratioP2;P2;SDS_P1;SDS_P2;PMS_P1;PMS_P2;Temp;Humidity;BMP_temperature;BMP_pressure;BME280_temperature;BME280_humidity;BME280_pressure;Samples;Min_cycle;Max_cycle;Signal;HPM_P1;HPM_P2
2020/12/09 00:00:54;;;;;;;23.25;14.20;;;1.30;93.60;;;;;;4952462;23;20056;-89
2020/12/09 00:03:19;;;;;;;28.80;17.10;;;1.30;93.60;;;;;;4976464;23;20057;-83
2020/12/09 00:05:45;;;;;;;24.83;16.25;;;1.20;93.60;;;;;;4978246;28;20057;-82
2020/12/09 00:08:11;;;;;;;25.23;14.85;;;1.20;93.60;;;;;;4979153;28;20072;-79
2020/12/09 00:10:37;;;;;;;28.50;17.13;;;1.20;93.70;;;;;;4977045;28;20077;-80
2020/12/09 00:13:02;;;;;;;31.52;16.52;;;1.30;93.80;;;;;;4974993;28;20500;-80
2020/12/09 00:15:28;;;;;;;29.92;16.20;;;1.50;93.80;;;;;;4977586;28;20034;-79
2020/12/09 00:17:53;;;;;;;27.40;16.30;;;1.40;93.60;;;;;;4978278;28;20038;-79
2020/12/09 00:20:19;;;;;;;32.70;16.63;;;1.40;93.70;;;;;;4960184;28;20034;-79
2020/12/09 00:22:45;;;;;;;26.90;15.75;;;1.40;93.70;;;;;;4977079;28;20025;-79
2020/12/09 00:25:11;;;;;;;30.80;17.42;;;1.40;93.80;;;;;;4977912;28;20040;-79
2020/12/09 00:27:36;;;;;;;32.28;18.65;;;1.50;93.90;;;;;;4968206;28;20026;-80
2020/12/09 00:30:04;;;;;;;31.70;17.58;;;1.60;93.80;;;;;;4972068;28;20366;-80
2020/12/09 00:32:30;;;;;;;44.47;23.98;;;1.50;93.70;;;;;;4962588;28;20030;-79
2020/12/09 00:34:55;;;;;;;37.83;20.55;;;1.50;93.80;;;;;;4976582;28;20036;-80
2020/12/09 00:37:21;;;;;;;24.80;15.77;;;1.40;94.20;;;;;;4976842;28;20034;-79
2020/12/09 00:39:47;;;;;;;23.95;14.95;;;1.50;93.90;;;;;;4975981;28;20030;-79
2020/12/09 00:42:12;;;;;;;26.40;15.90;;;1.60;93.90;;;;;;4973841;28;20488;-79
2020/12/09 00:44:38;;;;;;;31.00;17.10;;;1.60;93.80;;;;;;4976110;28;20109;-80
2020/12/09 00:47:03;;;;;;;29.95;16.00;;;1.60;93.70;;;;;;4974160;28;20112;-79
2020/12/09 00:49:29;;;;;;;24.55;14.63;;;1.70;93.90;;;;;;4991051;28;20041;-79
2020/12/09 00:51:54;;;;;;;28.67;15.98;;;1.70;93.70;;;;;;4977731;28;20033;-79
2020/12/09 00:54:20;;;;;;;22.00;13.27;;;1.70;93.60;;;;;;4976083;28;20026;-80
2020/12/09 00:56:45;;;;;;;25.33;15.60;;;1.70;93.70;;;;;;4975889;28;20491;-79
2020/12/09 00:59:11;;;;;;;25.27;14.95;;;1.70;93.70;;;;;;4973475;28;20026;-79
2020/12/09 01:01:37;;;;;;;24.80;14.52;;;1.80;93.70;;;;;;4966636;28;20037;-79
2020/12/09 01:04:04;;;;;;;25.42;15.65;;;1.90;93.60;;;;;;4972538;28;20041;-80
2020/12/09 01:06:33;;;;;;;25.98;14.45;;;1.80;93.40;;;;;;4974219;28;20030;-80
2020/12/09 01:09:08;;;;;;;25.17;14.40;;;1.90;93.80;;;;;;4973353;28;20030;-79
2020/12/09 01:11:34;;;;;;;29.83;17.17;;;1.80;93.60;;;;;;4957088;28;20042;-79
2020/12/09 01:13:59;;;;;;;26.13;15.63;;;1.80;93.60;;;;;;4972785;28;20038;-79
2020/12/09 01:16:25;;;;;;;26.10;16.30;;;1.90;93.60;;;;;;4973516;28;20033;-79
2020/12/09 01:18:50;;;;;;;32.38;19.17;;;1.70;93.40;;;;;;4972725;28;20019;-80
2020/12/09 01:21:24;;;;;;;24.63;15.52;;;1.90;93.70;;;;;;4973086;28;20034;-80
2020/12/09 01:23:49;;;;;;;30.52;16.33;;;1.90;93.70;;;;;;4969465;28;20382;-79
2020/12/09 01:26:15;;;;;;;27.20;16.45;;;2.00;93.50;;;;;;4972875;28;20030;-80
2020/12/09 01:28:40;;;;;;;27.83;16.27;;;2.00;93.50;;;;;;4972548;28;20039;-80
2020/12/09 01:31:06;;;;;;;27.52;16.80;;;1.90;93.60;;;;;;4967039;28;20118;-80
2020/12/09 01:33:31;;;;;;;30.10;16.02;;;2.20;93.40;;;;;;4972395;28;20049;-80
2020/12/09 01:35:57;;;;;;;32.63;19.17;;;2.20;93.00;;;;;;4988638;28;20038;-80
2020/12/09 01:38:22;;;;;;;33.17;18.95;;;2.10;93.40;;;;;;4972006;28;20101;-79
2020/12/09 01:40:48;;;;;;;30.40;16.92;;;2.00;93.60;;;;;;4972964;28;20081;-80
2020/12/09 01:43:13;;;;;;;33.88;19.40;;;1.90;93.80;;;;;;4956378;28;20058;-81
2020/12/09 01:45:39;;;;;;;31.85;19.60;;;1.90;94.00;;;;;;4971964;28;20445;-80
2020/12/09 01:48:07;;;;;;;28.67;16.98;;;1.90;93.90;;;;;;4972378;28;20105;-80
2020/12/09 01:50:32;;;;;;;28.48;17.10;;;1.90;94.00;;;;;;4955170;28;20038;-79
2020/12/09 01:52:58;;;;;;;31.20;18.15;;;1.90;93.90;;;;;;4971493;28;20038;-80
2020/12/09 01:55:23;;;;;;;25.80;15.00;;;1.80;93.80;;;;;;4954143;28;20053;-80
2020/12/09 01:57:49;;;;;;;22.75;14.52;;;2.00;93.80;;;;;;4972734;28;20057;-79
2020/12/09 02:00:14;;;;;;;30.10;15.70;;;2.00;93.80;;;;;;4972058;28;20042;-81
2020/12/09 02:02:40;;;;;;;25.25;14.55;;;2.00;93.70;;;;;;4972570;28;20037;-80
2020/12/09 02:05:06;;;;;;;28.65;15.10;;;2.10;93.70;;;;;;4957894;28;20167;-80
2020/12/09 02:07:33;;;;;;;27.73;16.00;;;2.10;93.40;;;;;;4971258;28;20599;-80
2020/12/09 02:10:04;;;;;;;28.08;17.30;;;2.20;93.40;;;;;;4969618;28;20026;-79
2020/12/09 02:12:32;;;;;;;35.50;18.42;;;2.20;93.40;;;;;;4970527;28;20046;-80
2020/12/09 02:14:58;;;;;;;30.45;16.73;;;2.10;93.50;;;;;;4988254;28;20121;-80
2020/12/09 02:17:24;;;;;;;34.00;20.80;;;2.10;93.50;;;;;;4972228;28;20133;-81
2020/12/09 02:19:49;;;;;;;27.42;16.10;;;2.10;93.70;;;;;;4972037;28;20217;-80
2020/12/09 02:22:15;;;;;;;30.85;17.98;;;2.10;93.70;;;;;;4970128;28;20041;-80
2020/12/09 02:24:40;;;;;;;31.25;16.67;;;2.10;93.70;;;;;;4971212;28;20027;-80
2020/12/09 02:27:06;;;;;;;34.95;19.60;;;2.10;93.70;;;;;;4961295;28;20381;-81
2020/12/09 02:29:31;;;;;;;26.45;15.57;;;2.10;93.70;;;;;;4961046;28;20038;-80
2020/12/09 02:32:00;;;;;;;25.85;14.88;;;2.20;93.60;;;;;;4971440;28;20037;-80
2020/12/09 02:34:26;;;;;;;24.33;15.25;;;2.30;93.50;;;;;;4971813;28;20054;-80
2020/12/09 02:36:51;;;;;;;21.58;13.38;;;2.40;93.20;;;;;;4972075;28;20106;-81
2020/12/09 02:39:23;;;;;;;26.60;15.52;;;2.40;93.10;;;;;;4971717;28;20184;-81
2020/12/09 02:41:48;;;;;;;26.88;16.92;;;2.40;93.10;;;;;;4987857;28;20026;-81
2020/12/09 02:44:14;;;;;;;27.10;16.27;;;2.30;93.20;;;;;;4970497;28;20385;-81
2020/12/09 02:46:39;;;;;;;26.42;13.48;;;2.30;93.40;;;;;;4970641;28;20030;-80
2020/12/09 02:49:05;;;;;;;23.13;14.40;;;2.30;93.40;;;;;;4971812;28;20018;-80
2020/12/09 02:51:30;;;;;;;23.90;13.52;;;2.30;93.40;;;;;;4972708;28;20034;-80
2020/12/09 02:53:56;;;;;;;25.88;14.45;;;2.20;93.50;;;;;;4967834;28;20390;-79
2020/12/09 02:56:21;;;;;;;28.02;16.88;;;2.20;93.50;;;;;;4975923;28;20022;-80
2020/12/09 02:58:47;;;;;;;32.33;18.17;;;2.30;93.50;;;;;;4970955;28;20026;-80
2020/12/09 03:01:13;;;;;;;33.35;18.60;;;2.30;93.40;;;;;;4970552;28;20019;-80
2020/12/09 03:03:38;;;;;;;38.20;20.45;;;2.30;93.50;;;;;;4971110;28;20042;-80
2020/12/09 03:06:04;;;;;;;29.70;16.85;;;2.30;93.50;;;;;;4970714;28;20027;-79
2020/12/09 03:08:30;;;;;;;20.58;12.93;;;2.30;93.50;;;;;;4964441;28;20362;-80
2020/12/09 03:10:55;;;;;;;25.38;14.70;;;2.30;93.80;;;;;;4971139;28;20058;-79
2020/12/09 03:13:21;;;;;;;39.38;19.08;;;2.30;93.50;;;;;;4970483;28;20155;-79
2020/12/09 03:15:46;;;;;;;28.85;17.15;;;2.30;93.60;;;;;;4971619;28;20507;-80
2020/12/09 03:18:12;;;;;;;20.98;12.07;;;2.30;93.60;;;;;;4970486;28;20023;-80
2020/12/09 03:20:37;;;;;;;38.83;21.55;;;2.40;93.60;;;;;;4970841;28;20038;-80
2020/12/09 03:23:03;;;;;;;40.08;21.65;;;2.40;93.60;;;;;;4988002;28;20460;-80
2020/12/09 03:25:28;;;;;;;32.33;16.98;;;2.30;93.60;;;;;;4971725;28;20105;-80
2020/12/09 03:27:54;;;;;;;28.40;16.77;;;2.30;93.60;;;;;;4970247;28;20038;-80
2020/12/09 03:30:19;;;;;;;31.80;16.75;;;2.40;93.50;;;;;;4962157;28;20764;-79
2020/12/09 03:32:45;;;;;;;40.97;22.10;;;2.40;93.60;;;;;;4969942;28;20022;-80
2020/12/09 03:35:11;;;;;;;27.02;15.98;;;2.40;93.50;;;;;;4970822;28;20030;-80
2020/12/09 03:37:36;;;;;;;40.63;20.88;;;2.40;93.50;;;;;;4970628;28;20027;-80
2020/12/09 03:40:02;;;;;;;44.40;22.55;;;2.40;93.40;;;;;;4955791;28;20545;-80
2020/12/09 03:42:28;;;;;;;29.38;15.52;;;2.50;93.50;;;;;;4971205;28;20433;-80
2020/12/09 03:44:53;;;;;;;26.05;15.10;;;2.40;93.50;;;;;;4970985;28;20085;-79
2020/12/09 03:47:19;;;;;;;37.50;20.02;;;2.50;93.50;;;;;;4962487;28;20022;-79
2020/12/09 03:49:44;;;;;;;31.70;17.65;;;2.50;93.40;;;;;;4969601;28;20030;-80
2020/12/09 03:52:10;;;;;;;34.80;18.63;;;2.60;93.30;;;;;;4966963;28;20110;-80
2020/12/09 03:54:35;;;;;;;28.48;15.80;;;2.60;93.30;;;;;;4970664;28;20485;-80
2020/12/09 03:57:01;;;;;;;29.20;15.82;;;2.60;93.40;;;;;;4964938;28;20029;-80
2020/12/09 03:59:27;;;;;;;35.78;18.52;;;2.60;93.40;;;;;;4960600;28;20026;-80
2020/12/09 04:01:52;;;;;;;29.80;17.10;;;2.60;93.40;;;;;;4970568;28;20029;-80
2020/12/09 04:04:18;;;;;;;33.78;18.35;;;2.60;93.40;;;;;;4962321;28;20031;-80
2020/12/09 04:06:43;;;;;;;32.47;18.13;;;2.70;93.20;;;;;;4977531;28;20026;-80
2020/12/09 04:09:09;;;;;;;40.80;20.20;;;2.60;93.40;;;;;;4970388;28;20113;-80
2020/12/09 04:11:34;;;;;;;32.90;18.25;;;2.60;93.40;;;;;;4972629;28;20027;-80
2020/12/09 04:14:00;;;;;;;39.25;20.00;;;2.60;93.30;;;;;;4969221;28;20027;-79
2020/12/09 04:16:25;;;;;;;39.53;20.10;;;2.80;93.10;;;;;;4971631;28;20027;-80
2020/12/09 04:18:51;;;;;;;29.17;16.95;;;2.70;93.00;;;;;;4972549;28;20670;-80
2020/12/09 04:21:16;;;;;;;28.27;15.07;;;2.80;93.20;;;;;;4990271;28;20496;-80
2020/12/09 04:23:42;;;;;;;33.47;18.50;;;2.80;93.10;;;;;;4965894;28;20015;-80
2020/12/09 04:26:07;;;;;;;33.13;18.42;;;2.80;93.10;;;;;;4974025;28;20081;-79
2020/12/09 04:28:33;;;;;;;30.38;15.90;;;2.80;93.10;;;;;;4971658;28;20037;-80
2020/12/09 04:30:58;;;;;;;34.85;18.38;;;2.80;93.10;;;;;;4973966;28;20477;-80
2020/12/09 04:33:27;;;;;;;44.05;23.02;;;2.80;93.10;;;;;;4966087;28;20515;-79
2020/12/09 04:35:54;;;;;;;41.53;23.33;;;2.80;93.20;;;;;;4973241;28;20038;-80
2020/12/09 04:38:19;;;;;;;35.20;18.20;;;2.70;93.20;;;;;;4974062;28;20081;-80
2020/12/09 04:40:45;;;;;;;34.13;18.10;;;2.70;93.30;;;;;;4974201;28;20482;-80
2020/12/09 04:43:10;;;;;;;33.15;17.13;;;2.70;93.30;;;;;;4971366;28;20080;-80
2020/12/09 04:45:37;;;;;;;27.98;15.48;;;2.70;93.20;;;;;;4971652;28;20101;-79
2020/12/09 04:48:09;;;;;;;29.95;16.98;;;2.80;93.20;;;;;;4953065;28;20030;-80
2020/12/09 04:51:07;;;;;;;43.90;21.85;;;2.80;93.30;;;;;;4972857;28;20035;-80
2020/12/09 04:53:32;;;;;;;25.42;15.25;;;2.80;93.30;;;;;;4988485;28;20089;-80
2020/12/09 04:55:59;;;;;;;40.30;22.00;;;2.80;93.30;;;;;;4973522;28;20437;-80
2020/12/09 04:58:41;;;;;;;37.17;18.00;;;2.80;93.30;;;;;;4957419;28;20030;-80
2020/12/09 05:01:12;;;;;;;38.95;19.63;;;2.80;93.30;;;;;;4984871;28;20088;-79
2020/12/09 05:03:45;;;;;;;32.45;17.92;;;2.80;93.20;;;;;;4956567;28;20042;-80
2020/12/09 05:06:13;;;;;;;37.60;20.33;;;2.90;93.20;;;;;;4963591;28;20042;-79
2020/12/09 05:08:39;;;;;;;27.60;16.30;;;2.90;93.10;;;;;;4968230;28;20026;-79
2020/12/09 05:11:05;;;;;;;32.50;17.38;;;2.90;93.10;;;;;;4973554;28;20089;-79
2020/12/09 05:13:31;;;;;;;36.58;19.23;;;3.00;93.00;;;;;;4970591;28;20030;-80
2020/12/09 05:15:57;;;;;;;30.42;15.38;;;2.90;93.00;;;;;;4965443;28;20094;-79
2020/12/09 05:18:36;;;;;;;32.67;16.67;;;2.90;93.00;;;;;;4965678;28;20030;-80
2020/12/09 05:21:19;;;;;;;40.53;21.95;;;3.00;93.00;;;;;;4972026;28;20367;-79
2020/12/09 05:23:55;;;;;;;46.33;22.52;;;2.90;93.10;;;;;;4962681;28;20081;-80
2020/12/09 05:26:38;;;;;;;31.80;16.55;;;2.90;93.10;;;;;;4972599;28;20659;-79
2020/12/09 05:29:10;;;;;;;30.50;14.10;;;3.00;93.10;;;;;;4969286;28;20038;-79
2020/12/09 05:31:49;;;;;;;38.33;19.70;;;3.00;93.00;;;;;;4990092;28;20042;-79
2020/12/09 05:34:33;;;;;;;37.22;19.38;;;3.00;93.10;;;;;;4957388;28;20103;-79
2020/12/09 05:37:04;;;;;;;34.13;19.25;;;2.90;93.20;;;;;;4968621;28;20035;-79
2020/12/09 05:39:30;;;;;;;44.47;23.95;;;2.90;93.20;;;;;;4972192;28;20042;-79
2020/12/09 05:41:56;;;;;;;46.40;23.98;;;3.00;93.20;;;;;;4989685;28;20243;-79
2020/12/09 05:44:47;;;;;;;35.03;18.95;;;3.00;93.30;;;;;;4972604;28;20023;-79
2020/12/09 05:47:13;;;;;;;38.15;19.88;;;2.90;93.30;;;;;;4989054;28;20053;-79
2020/12/09 05:49:39;;;;;;;43.50;22.63;;;3.00;93.30;;;;;;4972898;28;20034;-79
2020/12/09 05:52:16;;;;;;;40.28;21.67;;;3.00;93.30;;;;;;4973111;28;20161;-80
2020/12/09 05:54:47;;;;;;;35.50;19.38;;;3.10;93.20;;;;;;4948270;28;20022;-79
2020/12/09 05:57:16;;;;;;;40.60;20.35;;;3.10;93.10;;;;;;4970987;28;20244;-79
2020/12/09 05:59:46;;;;;;;37.92;20.42;;;3.10;93.00;;;;;;4971745;28;20113;-80
2020/12/09 06:02:18;;;;;;;39.33;20.83;;;3.20;93.10;;;;;;4969323;28;20118;-80
2020/12/09 06:04:56;;;;;;;48.25;24.35;;;3.20;93.00;;;;;;4971548;28;20042;-80
2020/12/09 06:07:22;;;;;;;47.15;23.23;;;3.10;93.20;;;;;;4970899;28;20084;-80
2020/12/09 06:10:08;;;;;;;37.42;20.17;;;3.10;93.20;;;;;;4972523;28;20049;-80
2020/12/09 06:12:53;;;;;;;35.38;20.52;;;3.20;93.10;;;;;;4986021;28;20088;-79
2020/12/09 06:15:23;;;;;;;38.15;19.52;;;3.20;93.20;;;;;;4970650;28;20349;-80
2020/12/09 06:18:13;;;;;;;42.83;22.58;;;3.10;93.30;;;;;;4968453;28;20031;-80
2020/12/09 06:20:42;;;;;;;41.63;21.48;;;3.20;93.30;;;;;;4972312;28;20117;-79
2020/12/09 06:23:12;;;;;;;36.10;20.17;;;3.20;93.20;;;;;;4963694;28;20430;-79
2020/12/09 06:25:38;;;;;;;44.92;23.73;;;3.20;93.10;;;;;;4966796;28;20034;-80
2020/12/09 06:28:09;;;;;;;39.80;22.70;;;3.20;93.20;;;;;;4971629;28;20030;-79
2020/12/09 06:30:34;;;;;;;51.78;25.88;;;3.20;93.30;;;;;;4971102;28;20038;-79
2020/12/09 06:33:00;;;;;;;34.00;18.73;;;3.10;93.30;;;;;;4979786;28;20425;-81
2020/12/09 06:35:26;;;;;;;52.80;28.35;;;3.10;93.40;;;;;;4970572;28;20026;-80
2020/12/09 06:38:15;;;;;;;36.63;20.25;;;3.10;93.30;;;;;;4971500;28;20066;-80
2020/12/09 06:41:03;;;;;;;40.70;19.75;;;3.10;93.40;;;;;;4956811;28;20752;-80
2020/12/09 06:43:31;;;;;;;40.03;17.65;;;3.20;93.30;;;;;;4969081;28;20038;-79
2020/12/09 06:45:57;;;;;;;41.95;21.98;;;3.20;93.10;;;;;;4966059;28;20374;-80
2020/12/09 06:48:24;;;;;;;57.20;30.08;;;3.20;93.10;;;;;;4984887;28;20077;-80
2020/12/09 06:50:51;;;;;;;50.72;24.52;;;3.20;93.20;;;;;;4971222;28;20034;-81
2020/12/09 06:53:21;;;;;;;39.03;20.58;;;3.30;93.20;;;;;;4968055;28;20022;-81
2020/12/09 06:55:47;;;;;;;39.03;17.98;;;3.30;93.10;;;;;;4969537;28;20057;-80
2020/12/09 06:58:29;;;;;;;42.20;21.63;;;3.30;93.00;;;;;;4960557;28;20038;-79
2020/12/09 07:00:58;;;;;;;52.20;24.20;;;3.30;93.10;;;;;;4954577;28;20034;-80
2020/12/09 07:03:24;;;;;;;50.85;26.33;;;3.30;93.10;;;;;;4985302;28;20038;-80
2020/12/09 07:05:50;;;;;;;60.85;30.40;;;3.30;93.20;;;;;;4963717;28;20030;-80
2020/12/09 07:08:15;;;;;;;45.30;22.27;;;3.30;93.10;;;;;;4962895;28;20033;-80
2020/12/09 07:10:53;;;;;;;57.75;27.75;;;3.30;93.10;;;;;;4970546;28;20030;-81
2020/12/09 07:13:19;;;;;;;58.35;30.73;;;3.40;93.00;;;;;;4969515;28;20035;-81
2020/12/09 07:15:49;;;;;;;45.47;23.23;;;3.30;93.10;;;;;;4971223;28;20727;-81
2020/12/09 07:18:15;;;;;;;58.78;28.33;;;3.10;93.20;;;;;;4952489;28;20038;-81
2020/12/09 07:20:41;;;;;;;48.20;24.88;;;3.30;93.20;;;;;;4969200;28;20031;-81
2020/12/09 07:23:08;;;;;;;54.67;24.77;;;3.20;93.30;;;;;;4970404;28;20549;-82
2020/12/09 07:25:35;;;;;;;46.40;23.23;;;3.30;93.10;;;;;;4986276;28;22127;-81
2020/12/09 07:28:01;;;;;;;49.65;24.98;;;3.30;93.10;;;;;;4970959;28;20042;-81
2020/12/09 07:30:26;;;;;;;61.45;29.60;;;3.30;93.10;;;;;;4954929;28;20038;-81
2020/12/09 07:32:55;;;;;;;71.40;32.67;;;3.30;93.10;;;;;;4968844;28;20050;-80
2020/12/09 07:35:20;;;;;;;41.20;19.38;;;3.30;93.20;;;;;;4955338;28;20038;-81
2020/12/09 07:37:52;;;;;;;73.22;34.30;;;3.30;93.20;;;;;;4986546;28;20038;-81
2020/12/09 07:40:25;;;;;;;51.03;22.88;;;3.20;93.30;;;;;;4956591;28;20038;-81
2020/12/09 07:43:12;;;;;;;69.18;32.75;;;3.20;93.40;;;;;;4971910;28;20085;-81
2020/12/09 07:45:52;;;;;;;43.65;16.67;;;3.20;93.30;;;;;;4986081;28;20046;-81
2020/12/09 07:48:18;;;;;;;74.15;28.77;;;3.30;93.30;;;;;;4953495;28;20385;-81
2020/12/09 07:50:53;;;;;;;85.55;41.30;;;3.30;93.20;;;;;;4970489;28;20034;-82
2020/12/09 07:53:19;;;;;;;67.93;29.83;;;3.20;93.30;;;;;;4956932;28;21100;-81
2020/12/09 07:55:44;;;;;;;74.70;34.80;;;3.20;93.40;;;;;;4974159;28;20030;-81
2020/12/09 07:58:11;;;;;;;53.83;22.63;;;3.20;93.40;;;;;;4972755;28;20113;-80
2020/12/09 08:00:38;;;;;;;60.65;27.33;;;3.20;93.50;;;;;;4974033;28;20110;-82
2020/12/09 08:03:03;;;;;;;75.40;36.45;;;3.20;93.40;;;;;;4973632;28;20142;-81
2020/12/09 08:05:34;;;;;;;69.93;34.53;;;3.30;93.30;;;;;;4970031;28;20445;-81
2020/12/09 08:08:00;;;;;;;69.43;32.38;;;3.20;93.40;;;;;;4968095;28;20034;-82
2020/12/09 08:10:30;;;;;;;67.22;31.52;;;3.10;93.60;;;;;;4973816;28;20061;-81
2020/12/09 08:13:12;;;;;;;70.18;35.53;;;3.10;93.60;;;;;;4970306;28;20034;-82
2020/12/09 08:15:42;;;;;;;50.08;25.30;;;3.10;93.60;;;;;;4974668;28;20050;-82
2020/12/09 08:18:08;;;;;;;33.70;13.43;;;3.20;93.40;;;;;;4971072;28;20415;-81
2020/12/09 08:20:50;;;;;;;70.80;32.15;;;3.20;93.40;;;;;;4974387;28;20088;-81
2020/12/09 08:23:15;;;;;;;62.15;29.67;;;3.20;93.30;;;;;;4966438;28;20038;-81
2020/12/09 08:25:59;;;;;;;61.00;26.98;;;3.30;93.30;;;;;;4974381;28;20089;-82
2020/12/09 08:28:25;;;;;;;59.55;28.30;;;3.30;93.30;;;;;;4969748;28;20046;-81
2020/12/09 08:30:52;;;;;;;62.95;28.90;;;3.30;93.20;;;;;;4974605;28;20393;-81
2020/12/09 08:33:18;;;;;;;65.25;28.50;;;3.30;93.20;;;;;;4990591;28;20026;-81
2020/12/09 08:36:07;;;;;;;70.50;33.60;;;3.30;92.90;;;;;;4973785;28;20034;-81
2020/12/09 08:38:43;;;;;;;78.68;37.30;;;3.30;93.00;;;;;;4974580;28;20121;-82
2020/12/09 08:41:10;;;;;;;48.40;20.92;;;3.20;93.20;;;;;;4974371;28;20773;-82
2020/12/09 08:43:37;;;;;;;67.65;31.02;;;3.30;93.30;;;;;;4965436;28;20524;-82
2020/12/09 08:46:03;;;;;;;66.10;26.55;;;3.30;93.10;;;;;;4974847;28;20652;-83
2020/12/09 08:48:29;;;;;;;95.95;43.88;;;3.30;93.30;;;;;;4990964;28;20058;-82
2020/12/09 08:51:07;;;;;;;20.83;11.10;;;3.30;93.20;;;;;;4974668;28;20116;-82
2020/12/09 08:53:33;;;;;;;76.82;30.35;;;3.30;93.00;;;;;;4966634;28;20030;-82
2020/12/09 08:55:58;;;;;;;94.97;41.70;;;3.30;93.00;;;;;;4974432;28;20049;-82
2020/12/09 08:58:24;;;;;;;81.32;34.05;;;3.40;93.10;;;;;;4965402;28;20031;-82
2020/12/09 09:00:49;;;;;;;82.13;36.50;;;3.30;92.90;;;;;;4974153;28;20438;-82
2020/12/09 09:03:25;;;;;;;74.95;31.80;;;3.40;93.00;;;;;;4973432;28;20030;-82
2020/12/09 09:05:55;;;;;;;79.32;33.58;;;3.40;92.90;;;;;;4975419;28;20043;-81
2020/12/09 09:08:20;;;;;;;77.03;33.60;;;3.30;92.90;;;;;;4972063;28;20038;-81
2020/12/09 09:10:46;;;;;;;85.72;38.50;;;3.40;92.80;;;;;;4974189;28;20430;-81
2020/12/09 09:13:12;;;;;;;73.60;32.95;;;3.40;92.80;;;;;;4972825;28;20437;-81
2020/12/09 09:15:37;;;;;;;71.70;31.40;;;3.40;92.70;;;;;;4972992;28;20389;-81
2020/12/09 09:18:03;;;;;;;60.25;26.52;;;3.40;92.90;;;;;;4965749;28;20065;-81
2020/12/09 09:20:29;;;;;;;86.25;40.42;;;3.50;93.10;;;;;;4957569;28;20033;-81
2020/12/09 09:22:54;;;;;;;79.68;36.08;;;3.50;92.90;;;;;;4972478;28;20042;-80
2020/12/09 09:25:20;;;;;;;77.95;35.05;;;3.40;92.80;;;;;;4964289;28;20030;-81
2020/12/09 09:27:47;;;;;;;70.43;31.98;;;3.40;92.50;;;;;;4973245;28;20125;-81
2020/12/09 09:30:12;;;;;;;73.32;33.88;;;3.30;92.60;;;;;;4973446;28;20034;-80
2020/12/09 09:32:38;;;;;;;72.18;34.17;;;3.30;92.60;;;;;;4972346;28;20032;-80
2020/12/09 09:35:04;;;;;;;78.25;34.10;;;3.30;92.50;;;;;;4988941;28;20122;-81
2020/12/09 09:37:30;;;;;;;64.68;26.42;;;3.40;92.70;;;;;;4956451;28;20035;-80
2020/12/09 09:39:55;;;;;;;78.53;31.45;;;3.30;92.30;;;;;;4972208;28;20026;-81
2020/12/09 09:42:21;;;;;;;69.97;30.85;;;3.30;92.20;;;;;;4972655;28;20034;-80
2020/12/09 09:44:47;;;;;;;73.05;33.85;;;3.40;92.40;;;;;;4973627;28;20034;-81
2020/12/09 09:47:12;;;;;;;81.68;40.22;;;3.40;92.50;;;;;;4972957;28;20057;-79
2020/12/09 09:49:38;;;;;;;74.18;33.78;;;3.50;92.80;;;;;;4971580;28;20049;-80
2020/12/09 09:52:06;;;;;;;70.35;33.47;;;3.50;92.20;;;;;;4972489;28;20038;-81
2020/12/09 09:54:32;;;;;;;63.17;29.85;;;3.50;92.20;;;;;;4986907;28;20050;-80
2020/12/09 09:56:57;;;;;;;70.30;33.00;;;3.50;92.60;;;;;;4972400;28;20034;-80
2020/12/09 09:59:23;;;;;;;69.28;32.83;;;3.60;92.20;;;;;;4959094;28;20539;-81
2020/12/09 10:01:48;;;;;;;76.53;36.75;;;3.50;92.10;;;;;;4972600;28;20029;-80
2020/12/09 10:04:14;;;;;;;70.18;33.65;;;3.50;92.30;;;;;;4971775;28;20049;-80
2020/12/09 10:06:39;;;;;;;62.00;30.10;;;3.70;93.50;;;;;;4969592;28;20046;-80
2020/12/09 10:09:06;;;;;;;69.55;33.88;;;3.80;93.20;;;;;;4969524;28;20031;-81
2020/12/09 10:11:36;;;;;;;65.68;33.13;;;3.90;93.50;;;;;;4971457;28;20092;-80
2020/12/09 10:14:02;;;;;;;71.20;34.00;;;3.90;92.90;;;;;;4970387;28;20034;-80
2020/12/09 10:16:28;;;;;;;62.95;29.98;;;3.90;92.40;;;;;;4971454;28;20037;-80
2020/12/09 10:18:54;;;;;;;65.43;32.40;;;4.00;92.90;;;;;;4970624;28;20057;-80
2020/12/09 10:21:26;;;;;;;66.90;31.10;;;4.00;92.50;;;;;;4957886;28;20031;-80
2020/12/09 10:23:52;;;;;;;69.57;36.25;;;4.00;92.60;;;;;;4986691;28;20043;-79
2020/12/09 10:26:26;;;;;;;69.05;35.85;;;4.10;93.10;;;;;;4971970;28;20535;-80
2020/12/09 10:28:51;;;;;;;75.25;35.47;;;4.10;93.20;;;;;;4963365;28;20035;-79
2020/12/09 10:31:17;;;;;;;69.90;35.80;;;4.10;93.00;;;;;;4972864;28;20046;-80
2020/12/09 10:33:42;;;;;;;68.47;35.72;;;4.20;93.80;;;;;;4970752;28;20046;-79
2020/12/09 10:36:08;;;;;;;67.10;35.03;;;4.20;94.00;;;;;;4971882;28;20031;-79
2020/12/09 10:38:33;;;;;;;61.50;31.95;;;4.20;93.80;;;;;;4972348;28;20026;-79
2020/12/09 10:40:59;;;;;;;62.72;33.13;;;4.30;93.60;;;;;;4969853;28;20501;-79
2020/12/09 10:43:25;;;;;;;68.78;34.88;;;4.30;93.60;;;;;;4987389;28;20661;-79
2020/12/09 10:45:51;;;;;;;56.83;27.27;;;4.30;93.50;;;;;;4972241;28;20050;-78
2020/12/09 10:48:16;;;;;;;62.47;32.97;;;4.30;93.50;;;;;;4969579;28;20031;-78
2020/12/09 10:50:42;;;;;;;65.75;34.38;;;4.40;93.30;;;;;;4971622;28;20073;-78
2020/12/09 10:53:07;;;;;;;60.65;27.50;;;4.30;93.60;;;;;;4959683;28;20489;-78
2020/12/09 10:55:33;;;;;;;64.63;32.03;;;4.40;93.50;;;;;;4971253;28;20410;-78
2020/12/09 10:58:01;;;;;;;62.53;32.17;;;4.50;93.60;;;;;;4971456;28;20049;-79
2020/12/09 11:00:26;;;;;;;62.35;33.13;;;4.50;93.20;;;;;;4964031;28;20043;-79
2020/12/09 11:02:54;;;;;;;62.90;31.45;;;4.50;93.70;;;;;;4963810;28;20506;-78
2020/12/09 11:05:19;;;;;;;60.22;31.35;;;4.60;93.90;;;;;;4970640;28;20042;-79
2020/12/09 11:07:45;;;;;;;62.35;31.58;;;4.60;93.70;;;;;;4954654;28;20041;-78
2020/12/09 11:10:10;;;;;;;63.63;34.35;;;4.70;93.50;;;;;;4971871;28;20065;-78
2020/12/09 11:12:36;;;;;;;65.82;34.72;;;4.70;93.30;;;;;;4971630;28;20058;-78
2020/12/09 11:15:02;;;;;;;60.72;34.00;;;4.70;93.90;;;;;;4962320;28;20361;-78
2020/12/09 11:17:28;;;;;;;58.40;28.15;;;4.70;94.10;;;;;;4971523;28;20054;-78
2020/12/09 11:19:53;;;;;;;69.90;34.97;;;4.80;93.30;;;;;;4971508;28;20334;-79
2020/12/09 11:22:19;;;;;;;59.67;32.90;;;4.90;93.90;;;;;;4988179;28;20022;-78
2020/12/09 11:24:44;;;;;;;65.18;35.05;;;4.90;93.80;;;;;;4970206;28;20034;-79
2020/12/09 11:27:10;;;;;;;66.20;35.63;;;4.90;93.90;;;;;;4972327;28;20038;-78
2020/12/09 11:29:37;;;;;;;64.63;35.88;;;5.00;93.90;;;;;;4991203;28;20416;-79
2020/12/09 11:32:04;;;;;;;59.83;29.30;;;5.10;93.50;;;;;;4973718;28;20508;-78
2020/12/09 11:34:30;;;;;;;60.70;31.88;;;5.00;92.50;;;;;;4617571;28;9999783;-78
2020/12/09 11:36:59;;;;;;;64.93;31.63;;;5.10;92.40;;;;;;4974663;28;20027;-78
2020/12/09 11:39:26;;;;;;;67.95;34.83;;;5.10;93.70;;;;;;4973589;28;20034;-78
2020/12/09 11:41:57;;;;;;;67.63;33.45;;;5.20;93.40;;;;;;4974628;28;20141;-78
2020/12/09 11:44:23;;;;;;;61.55;30.17;;;5.20;93.60;;;;;;4972245;28;20046;-78
2020/12/09 11:46:48;;;;;;;67.95;36.33;;;5.30;93.60;;;;;;4972890;28;20023;-77
2020/12/09 11:49:14;;;;;;;53.58;28.13;;;5.30;94.20;;;;;;4962729;28;20034;-78
2020/12/09 11:51:39;;;;;;;69.50;35.78;;;5.30;93.30;;;;;;4973645;28;20374;-78
2020/12/09 11:54:05;;;;;;;65.00;34.75;;;5.40;94.30;;;;;;4989114;28;20049;-78
2020/12/09 11:56:30;;;;;;;69.53;35.13;;;5.40;94.50;;;;;;4972678;28;20660;-77
2020/12/09 11:58:56;;;;;;;68.32;31.23;;;5.40;94.20;;;;;;4971204;28;20056;-78
2020/12/09 12:01:22;;;;;;;65.28;31.42;;;5.40;93.90;;;;;;4949921;28;20097;-78
2020/12/09 12:03:48;;;;;;;75.03;37.45;;;5.40;94.30;;;;;;4973776;28;20042;-78
2020/12/09 12:06:22;;;;;;;73.18;37.60;;;5.40;94.10;;;;;;4962366;28;20034;-78
2020/12/09 12:08:49;;;;;;;66.22;34.92;;;5.40;94.00;;;;;;4967564;28;20030;-77
2020/12/09 12:11:22;;;;;;;72.18;34.10;;;5.50;94.30;;;;;;4972459;28;20120;-78
2020/12/09 12:13:48;;;;;;;61.03;29.13;;;5.50;94.20;;;;;;4971550;28;20164;-77
2020/12/09 12:16:15;;;;;;;54.17;26.02;;;5.40;92.20;;;;;;4973307;28;20521;-78
2020/12/09 12:18:40;;;;;;;61.45;31.52;;;5.10;91.30;;;;;;4974166;28;20041;-78
2020/12/09 12:21:06;;;;;;;53.58;24.23;;;5.20;92.90;;;;;;4973952;28;20035;-78
2020/12/09 12:23:31;;;;;;;59.22;29.58;;;5.30;92.20;;;;;;4973135;28;20061;-80
2020/12/09 12:25:57;;;;;;;61.38;33.28;;;5.30;92.00;;;;;;4990035;28;20572;-78
2020/12/09 12:28:24;;;;;;;56.75;27.35;;;5.30;91.90;;;;;;4973700;28;20508;-78
2020/12/09 12:30:50;;;;;;;52.95;27.48;;;5.40;92.00;;;;;;4973142;28;20035;-78
2020/12/09 12:33:18;;;;;;;63.10;34.58;;;5.40;92.60;;;;;;4957795;28;20038;-78
2020/12/09 12:35:43;;;;;;;55.58;29.08;;;5.50;94.00;;;;;;4973058;28;20038;-79
2020/12/09 12:38:09;;;;;;;59.97;32.78;;;5.50;93.50;;;;;;4960830;28;20134;-78